Time;durP1;ratioP1;P1;durP2;ratioP2;P2;SDS_P1;SDS_P2;PMS_P1;PMS_P2;Temp;Humidity;BMP_temperature;BMP_pressure;BME280_temperature;BME280_humidity;BME280_pressure;Samples;Min_cycle;Max_cycle;Signal;HPM_P1;HPM_P2
2021/12/21 00:00:27;;;;;;;17.73;8.82;;;;;;;2.40;51.08;95100.38;5021449;28;20108;-80
2021/12/21 00:02:53;;;;;;;21.40;8.50;;;;;;;2.50;50.87;95105.25;5018898;28;20529;-80
2021/12/21 00:05:24;;;;;;;17.17;7.85;;;;;;;2.55;50.29;95104.72;5041000;28;20049;-80
2021/12/21 00:07:51;;;;;;;17.63;9.40;;;;;;;2.63;50.36;95110.59;5039672;28;20059;-79
2021/12/21 00:10:20;;;;;;;18.10;7.13;;;;;;;2.66;50.26;95106.88;5039282;28;20276;-79
2021/12/21 00:20:47;;;;;;;7.05;6.10;;;;;;;2.70;50.07;95120.94;5036524;28;20049;-79
2021/12/21 00:25:45;;;;;;;7.43;5.38;;;;;;;2.59;50.06;95111.09;5038645;28;20131;-81
2021/12/21 00:28:13;;;;;;;4.85;4.30;;;;;;;2.45;50.75;95120.38;5018433;28;20650;-81
2021/12/21 00:30:40;;;;;;;8.10;4.55;;;;;;;2.47;50.73;95127.91;5047967;28;20039;-80
2021/12/21 00:33:11;;;;;;;5.53;4.38;;;;;;;2.42;50.81;95121.50;5064533;28;20013;-80
2021/12/21 00:35:37;;;;;;;4.65;4.25;;;;;;;2.44;51.04;95117.97;5035924;28;20084;-80
2021/12/21 00:38:04;;;;;;;4.75;4.22;;;;;;;2.43;50.59;95127.44;5062671;28;20021;-80
2021/12/21 00:40:30;;;;;;;4.78;4.13;;;;;;;2.47;51.03;95133.06;5054841;28;20053;-81
2021/12/21 00:42:56;;;;;;;3.92;3.50;;;;;;;2.51;50.73;95129.94;5034407;28;20017;-81
2021/12/21 00:45:22;;;;;;;5.68;4.25;;;;;;;2.59;50.78;95136.78;5020638;28;20052;-79
2021/12/21 00:47:49;;;;;;;4.55;4.13;;;;;;;2.57;50.59;95139.50;5054469;28;20030;-80
2021/12/21 00:50:17;;;;;;;4.20;3.90;;;;;;;2.51;50.56;95140.22;5036903;28;20092;-79
2021/12/21 00:52:47;;;;;;;5.88;4.55;;;;;;;2.49;50.64;95147.31;5054408;28;20037;-81
2021/12/21 00:55:12;;;;;;;6.25;4.25;;;;;;;2.44;50.96;95129.06;5048039;28;20064;-81
2021/12/21 00:57:38;;;;;;;4.00;3.70;;;;;;;2.23;51.64;95142.53;5037235;28;20033;-80
2021/12/21 01:00:05;;;;;;;6.43;5.18;;;;;;;2.10;52.04;95135.41;5045611;28;20033;-78
2021/12/21 01:02:30;;;;;;;6.38;5.65;;;;;;;1.98;52.61;95138.56;5050837;28;20033;-78
2021/12/21 01:04:58;;;;;;;4.38;3.97;;;;;;;1.91;52.66;95150.44;5042863;28;20040;-81
2021/12/21 01:07:32;;;;;;;6.88;5.10;;;;;;;1.89;52.53;95135.22;5023011;28;20033;-80
2021/12/21 01:15:36;;;;;;;5.40;4.90;;;;;;;1.49;53.22;95141.41;5066574;28;20033;-79
2021/12/21 01:17:51;;;;;;;5.45;4.65;;;;;;;1.47;53.02;95133.06;5051188;28;20079;-79
2021/12/21 01:20:40;;;;;;;4.53;4.15;;;;;;;1.45;53.57;95142.66;5048837;28;20041;-79
2021/12/21 01:23:48;;;;;;;4.63;4.15;;;;;;;1.54;53.63;95135.75;5062639;28;20060;-79
2021/12/21 01:26:17;;;;;;;6.20;3.90;;;;;;;1.58;53.17;95137.81;5062059;28;20100;-80
2021/12/21 01:29:07;;;;;;;17.40;7.68;;;;;;;1.50;53.27;95135.31;5049545;28;20032;-79
2021/12/21 01:36:43;;;;;;;72.38;39.80;;;;;;;1.52;53.51;95146.19;5067373;28;20053;-80
2021/12/21 01:39:30;;;;;;;77.07;46.70;;;;;;;1.57;52.86;95145.66;5273153;23;20066;-79
2021/12/21 01:42:06;;;;;;;26.30;17.67;;;;;;;1.59;52.92;95151.41;5031418;28;20034;-78
2021/12/21 01:49:45;;;;;;;6.03;4.43;;;;;;;1.59;51.11;95143.72;5014089;28;20065;-77
2021/12/21 01:52:14;;;;;;;5.95;4.72;;;;;;;1.56;51.04;95146.63;5015007;28;20030;-79
2021/12/21 01:54:39;;;;;;;7.38;4.63;;;;;;;1.52;51.36;95138.50;5015912;28;20062;-80
2021/12/21 01:57:05;;;;;;;5.53;4.35;;;;;;;1.49;51.02;95133.69;5017647;28;20034;-81
2021/12/21 01:59:35;;;;;;;6.38;4.63;;;;;;;1.47;50.65;95145.88;4999998;28;20067;-80
2021/12/21 02:02:00;;;;;;;4.97;4.47;;;;;;;1.44;50.98;95135.94;5032072;28;20027;-80
2021/12/21 02:04:26;;;;;;;5.25;3.97;;;;;;;1.38;51.09;95136.63;5032672;28;20045;-81
2021/12/21 02:06:52;;;;;;;4.40;4.03;;;;;;;1.37;51.46;95146.09;5017163;28;20065;-81
2021/12/21 02:09:19;;;;;;;8.07;4.15;;;;;;;1.38;51.15;95142.56;5027247;28;20055;-81
2021/12/21 02:11:46;;;;;;;5.25;4.85;;;;;;;1.41;51.23;95141.41;5016248;28;20021;-80
2021/12/21 02:14:12;;;;;;;5.30;4.32;;;;;;;1.47;51.14;95133.06;5017957;28;20061;-79
2021/12/21 02:19:25;;;;;;;3.88;3.58;;;;;;;1.48;49.95;95137.22;5030816;28;20053;-80
2021/12/21 02:21:54;;;;;;;6.47;4.35;;;;;;;1.44;50.18;95146.19;5034126;28;20054;-79
2021/12/21 02:24:25;;;;;;;7.40;4.50;;;;;;;1.40;50.24;95144.94;5017955;28;20049;-79
2021/12/21 02:27:18;;;;;;;4.88;4.20;;;;;;;1.28;50.61;95130.91;5003265;28;20057;-80
2021/12/21 02:29:43;;;;;;;3.55;3.35;;;;;;;1.30;50.65;95150.28;5021860;28;20052;-79
2021/12/21 02:32:12;;;;;;;4.10;3.78;;;;;;;1.33;50.02;95156.84;5013607;28;20043;-81
2021/12/21 02:34:38;;;;;;;8.32;4.07;;;;;;;1.32;50.22;95140.66;5012643;28;20121;-81
2021/12/21 02:37:03;;;;;;;4.07;3.53;;;;;;;1.37;50.24;95146.09;5021296;28;20530;-81
2021/12/21 02:39:29;;;;;;;3.80;3.50;;;;;;;1.37;50.03;95146.09;5003991;28;20061;-81
2021/12/21 02:41:56;;;;;;;6.03;4.35;;;;;;;1.42;49.78;95145.56;5004030;28;20026;-81
2021/12/21 02:44:22;;;;;;;5.13;3.60;;;;;;;1.50;49.67;95145.56;4987936;28;20041;-81
2021/12/21 02:46:48;;;;;;;4.25;3.83;;;;;;;1.48;49.74;95152.63;5020019;28;20398;-81
2021/12/21 02:49:13;;;;;;;4.97;3.80;;;;;;;1.49;50.22;95154.22;5000894;28;20065;-79
2021/12/21 02:51:40;;;;;;;5.13;3.85;;;;;;;1.56;49.63;95160.25;5018302;28;20076;-80
2021/12/21 02:54:06;;;;;;;13.80;5.63;;;;;;;1.57;49.58;95146.47;5001577;28;20037;-80
2021/12/21 02:56:32;;;;;;;8.40;5.50;;;;;;;1.55;49.41;95158.66;5017724;28;20034;-80
2021/12/21 02:58:57;;;;;;;4.70;4.10;;;;;;;1.58;49.80;95157.50;5000426;28;20482;-81
2021/12/21 03:01:23;;;;;;;4.68;3.78;;;;;;;1.62;49.76;95154.44;5000927;28;20042;-81
2021/12/21 03:03:48;;;;;;;3.70;3.40;;;;;;;1.61;49.83;95155.41;4996597;28;20038;-80
2021/12/21 03:06:44;;;;;;;5.07;4.25;;;;;;;1.63;49.92;95152.69;5003021;28;20157;-81
2021/12/21 03:09:11;;;;;;;4.38;3.60;;;;;;;1.63;49.27;95156.06;5004141;28;20042;-81
2021/12/21 03:11:48;;;;;;;4.90;4.40;;;;;;;1.59;50.02;95165.03;5002731;28;20039;-81
2021/12/21 03:14:14;;;;;;;9.73;5.97;;;;;;;1.64;49.41;95170.47;4987111;28;20040;-80
2021/12/21 03:16:40;;;;;;;7.95;6.05;;;;;;;1.69;49.97;95173.31;5002396;28;20036;-80
2021/12/21 03:19:10;;;;;;;8.43;5.65;;;;;;;1.73;49.44;95166.88;5008616;28;20063;-79
2021/12/21 03:21:36;;;;;;;8.52;5.22;;;;;;;1.82;49.13;95164.28;5016038;28;20118;-80
2021/12/21 03:24:05;;;;;;;5.38;4.82;;;;;;;1.86;49.36;95165.53;5016666;28;20038;-80
2021/12/21 03:26:31;;;;;;;4.35;3.90;;;;;;;1.86;49.48;95163.78;5031389;28;20101;-81
2021/12/21 03:28:56;;;;;;;3.80;3.60;;;;;;;1.90;49.64;95161.66;5001784;28;20042;-80
2021/12/21 03:31:22;;;;;;;4.50;4.10;;;;;;;1.90;49.74;95161.66;5000198;28;20030;-80
2021/12/21 03:33:50;;;;;;;7.93;4.55;;;;;;;1.92;49.52;95160.53;5000067;28;20037;-79
2021/12/21 03:36:18;;;;;;;5.00;4.43;;;;;;;1.90;49.55;95161.66;5000428;28;20502;-79
2021/12/21 03:38:55;;;;;;;4.85;4.20;;;;;;;1.88;49.56;95169.53;4999614;28;20042;-79
2021/12/21 03:41:21;;;;;;;11.45;6.65;;;;;;;1.84;49.57;95177.75;5015786;28;20034;-79
2021/12/21 03:43:46;;;;;;;9.75;5.22;;;;;;;1.82;48.57;95175.34;4999932;28;20042;-79
2021/12/21 03:46:14;;;;;;;5.28;4.50;;;;;;;1.77;49.57;95177.59;4999038;28;20532;-79
2021/12/21 03:48:42;;;;;;;7.57;4.88;;;;;;;1.76;49.04;95184.50;5001183;28;20034;-79
2021/12/21 03:51:09;;;;;;;7.38;5.65;;;;;;;1.78;48.92;95179.19;5000378;28;20040;-79
2021/12/21 03:53:34;;;;;;;4.68;4.28;;;;;;;1.78;49.30;95190.25;5003493;23;20061;-78
2021/12/21 03:56:18;;;;;;;17.98;5.10;;;;;;;1.84;49.08;95188.78;5011713;28;20061;-79
2021/12/21 03:58:43;;;;;;;7.05;6.25;;;;;;;1.87;48.60;95192.78;5011238;28;20061;-79
2021/12/21 04:01:09;;;;;;;7.30;6.03;;;;;;;1.89;48.89;95189.06;4976764;28;20046;-80
2021/12/21 04:03:37;;;;;;;7.50;5.70;;;;;;;1.94;48.82;95199.63;4994679;28;20114;-79
2021/12/21 04:06:05;;;;;;;9.98;5.82;;;;;;;1.99;49.07;95199.94;5011086;28;20030;-79
2021/12/21 04:08:31;;;;;;;8.65;5.57;;;;;;;1.99;48.31;95204.25;4993011;28;20069;-80
2021/12/21 04:10:56;;;;;;;8.82;5.22;;;;;;;1.97;47.62;95204.44;4994519;28;20038;-79
2021/12/21 04:13:22;;;;;;;5.57;4.32;;;;;;;1.93;47.98;95213.41;5010879;28;20426;-79
2021/12/21 04:15:52;;;;;;;10.27;5.13;;;;;;;1.93;48.25;95199.78;5010796;28;20046;-79
2021/12/21 04:18:20;;;;;;;5.30;4.80;;;;;;;2.02;47.72;95206.47;4977752;28;20077;-79
2021/12/21 04:20:45;;;;;;;4.28;3.90;;;;;;;2.02;47.22;95209.03;5004067;28;20014;-78
2021/12/21 04:23:11;;;;;;;5.72;4.10;;;;;;;1.99;47.56;95205.06;5027638;28;20034;-79
2021/12/21 04:25:36;;;;;;;6.22;4.72;;;;;;;1.99;47.22;95201.69;4992200;28;20022;-78
2021/12/21 04:28:02;;;;;;;10.88;6.40;;;;;;;1.98;47.16;95205.22;5003075;28;20570;-80
2021/12/21 04:30:28;;;;;;;12.32;7.30;;;;;;;1.98;46.93;95205.22;4994527;28;20077;-80
2021/12/21 04:32:53;;;;;;;9.57;6.78;;;;;;;1.95;47.07;95201.25;4994219;28;20038;-80
2021/12/21 04:35:45;;;;;;;6.07;4.78;;;;;;;1.88;47.50;95200.31;5012765;28;20228;-79
2021/12/21 04:38:33;;;;;;;7.68;6.35;;;;;;;1.86;47.06;95199.69;5006153;28;20048;-80
2021/12/21 04:41:06;;;;;;;8.07;5.05;;;;;;;1.84;47.18;95203.38;4991743;28;20030;-81
2021/12/21 04:43:31;;;;;;;9.93;6.05;;;;;;;1.82;47.24;95206.13;5011649;28;20034;-79
2021/12/21 04:45:57;;;;;;;7.53;5.00;;;;;;;1.74;47.45;95211.25;5021333;28;20026;-79
2021/12/21 04:48:22;;;;;;;9.05;5.43;;;;;;;1.76;47.32;95219.59;5024008;28;20037;-78
2021/12/21 04:50:48;;;;;;;9.90;6.35;;;;;;;1.76;47.30;95212.69;5023201;28;20034;-78
2021/12/21 04:53:16;;;;;;;8.13;5.70;;;;;;;1.73;46.66;95218.16;5012785;28;20150;-81
2021/12/21 04:55:47;;;;;;;19.88;8.88;;;;;;;1.69;46.84;95219.47;4995268;28;20035;-81
2021/12/21 04:58:13;;;;;;;20.67;10.95;;;;;;;1.67;47.45;95229.09;4991324;28;20048;-84
2021/12/21 05:00:39;;;;;;;12.02;8.48;;;;;;;1.67;46.80;95229.09;5009397;28;20108;-81
2021/12/21 05:03:04;;;;;;;11.65;6.82;;;;;;;1.66;47.06;95232.63;5013297;28;20041;-80
2021/12/21 05:05:30;;;;;;;10.93;6.75;;;;;;;1.62;46.81;95233.09;5011239;28;20033;-81
2021/12/21 05:08:07;;;;;;;14.88;7.05;;;;;;;1.60;46.56;95232.47;4986372;28;20034;-77
2021/12/21 05:10:44;;;;;;;14.40;7.10;;;;;;;1.52;46.93;95238.44;4992773;28;20046;-79
2021/12/21 05:13:13;;;;;;;9.50;7.13;;;;;;;1.49;47.48;95244.69;5007805;28;20156;-81
2021/12/21 05:15:38;;;;;;;9.63;6.10;;;;;;;1.47;47.26;95244.06;5007538;28;20042;-80
2021/12/21 05:18:04;;;;;;;19.30;10.35;;;;;;;1.47;47.45;95246.63;5014924;28;20052;-79
2021/12/21 05:20:30;;;;;;;11.65;6.50;;;;;;;1.46;47.97;95241.63;5012972;28;20038;-80
2021/12/21 05:22:55;;;;;;;20.55;8.77;;;;;;;1.45;48.05;95240.03;4988601;28;20485;-79
2021/12/21 05:25:21;;;;;;;23.80;11.60;;;;;;;1.43;47.56;95249.66;5007961;28;20049;-80
2021/12/21 05:27:46;;;;;;;13.32;6.97;;;;;;;1.45;47.78;95245.16;4995299;28;20041;-79
2021/12/21 05:30:12;;;;;;;21.02;10.07;;;;;;;1.40;47.78;95252.56;4994705;28;20457;-80
2021/12/21 05:32:37;;;;;;;26.15;13.02;;;;;;;1.38;48.59;95239.13;5009033;28;20072;-80
2021/12/21 05:35:03;;;;;;;32.17;17.55;;;;;;;1.34;48.52;95248.09;4990310;28;20053;-80
2021/12/21 05:37:29;;;;;;;42.78;22.20;;;;;;;1.28;49.20;95251.28;5008031;28;20117;-83
2021/12/21 05:42:20;;;;;;;31.55;17.63;;;;;;;1.17;50.18;95252.47;5007192;28;20060;-81
2021/12/21 05:44:45;;;;;;;43.45;16.63;;;;;;;1.10;49.70;95252.28;4989314;28;20514;-78
2021/12/21 05:47:11;;;;;;;21.67;10.98;;;;;;;1.03;50.37;95251.34;5009982;28;20382;-81
2021/12/21 05:49:36;;;;;;;42.85;19.98;;;;;;;0.98;50.92;95253.59;4988408;28;20037;-81
2021/12/21 05:52:02;;;;;;;44.38;19.27;;;;;;;0.96;51.04;95250.38;4987924;28;20039;-82
2021/12/21 05:54:28;;;;;;;23.05;11.68;;;;;;;0.97;50.78;95262.22;4972083;28;20080;-81
2021/12/21 05:56:56;;;;;;;29.55;14.82;;;;;;;0.98;50.68;95268.19;5005617;28;20033;-80
2021/12/21 05:59:21;;;;;;;14.80;9.88;;;;;;;0.99;51.34;95268.00;5011255;28;20038;-79
2021/12/21 06:01:47;;;;;;;11.18;7.75;;;;;;;0.98;51.58;95268.97;5008640;28;20037;-80
2021/12/21 06:04:15;;;;;;;29.17;13.50;;;;;;;1.05;51.58;95279.34;5008634;28;20049;-79
2021/12/21 06:06:40;;;;;;;18.65;11.45;;;;;;;1.04;51.29;95275.19;5009117;28;20030;-80
2021/12/21 06:09:09;;;;;;;8.10;6.00;;;;;;;1.07;51.38;95282.56;5006827;28;20050;-79
2021/12/21 06:11:39;;;;;;;12.10;7.55;;;;;;;1.09;51.71;95278.88;4991697;28;20042;-81
2021/12/21 06:27:35;;;;;;;21.85;10.93;;;;;;;1.39;51.48;95302.22;5011212;28;20042;-79
2021/12/21 06:30:01;;;;;;;15.15;7.32;;;;;;;1.43;51.37;95319.66;5002150;28;20037;-80
2021/12/21 06:32:27;;;;;;;13.10;8.32;;;;;;;1.47;50.56;95330.41;5017891;28;20034;-79
2021/12/21 06:34:53;;;;;;;27.05;9.20;;;;;;;1.49;51.37;95323.34;5023994;28;20041;-79
2021/12/21 06:37:18;;;;;;;20.52;10.35;;;;;;;1.45;51.10;95342.53;5019625;28;20091;-79
2021/12/21 06:39:45;;;;;;;15.50;10.07;;;;;;;1.42;51.77;95342.88;5001703;28;20037;-80
2021/12/21 06:42:11;;;;;;;12.88;8.88;;;;;;;1.33;52.23;95341.28;5001474;28;20038;-80
2021/12/21 06:44:41;;;;;;;19.95;11.43;;;;;;;1.34;52.55;95342.91;5016852;28;20492;-80
2021/12/21 06:52:37;;;;;;;18.52;11.15;;;;;;;1.77;51.69;95351.94;5018238;28;20041;-79
2021/12/21 06:55:03;;;;;;;24.23;12.63;;;;;;;1.86;50.78;95352.72;5014628;28;20038;-80
2021/12/21 06:57:28;;;;;;;30.40;15.02;;;;;;;1.89;51.02;95349.84;4998335;28;20537;-80
2021/12/21 06:59:54;;;;;;;40.15;18.25;;;;;;;1.96;50.81;95361.03;4997977;28;20057;-82
2021/12/21 07:02:19;;;;;;;23.15;12.45;;;;;;;2.05;50.23;95357.47;5014383;28;20041;-82
2021/12/21 07:04:45;;;;;;;42.53;21.45;;;;;;;2.24;49.74;95363.97;4982249;28;20034;-81
2021/12/21 07:07:16;;;;;;;43.65;17.90;;;;;;;2.36;49.78;95362.66;4984058;28;20042;-81
2021/12/21 07:09:44;;;;;;;25.58;13.60;;;;;;;2.42;48.71;95367.91;5018620;28;20041;-79
2021/12/21 07:20:07;;;;;;;23.25;14.15;;;;;;;2.61;48.53;95363.34;4999640;28;20044;-79
2021/12/21 07:22:33;;;;;;;25.17;13.68;;;;;;;2.54;47.90;95368.34;4996749;28;20124;-79
2021/12/21 07:24:58;;;;;;;31.10;9.73;;;;;;;2.46;47.78;95368.38;4980062;28;20026;-80
2021/12/21 07:27:24;;;;;;;12.52;8.93;;;;;;;2.51;47.66;95373.00;4994929;28;20600;-80
2021/12/21 07:29:55;;;;;;;23.92;14.15;;;;;;;2.56;47.43;95374.09;5013563;28;20486;-80
2021/12/21 07:32:21;;;;;;;21.35;11.18;;;;;;;2.63;47.33;95384.50;5013072;28;20579;-80
2021/12/21 07:34:46;;;;;;;13.55;7.50;;;;;;;2.70;46.96;95372.56;5014311;28;20034;-80
2021/12/21 07:37:15;;;;;;;29.92;10.40;;;;;;;2.77;46.44;95376.09;5012344;28;20433;-80
2021/12/21 07:39:43;;;;;;;13.65;8.00;;;;;;;2.87;46.44;95376.66;5017974;28;20084;-80
2021/12/21 07:42:09;;;;;;;15.77;9.27;;;;;;;2.95;45.97;95381.75;4993285;28;20029;-81
2021/12/21 07:44:34;;;;;;;12.23;7.07;;;;;;;2.98;45.87;95383.97;5013474;28;20100;-81
2021/12/21 07:47:02;;;;;;;16.00;5.57;;;;;;;3.01;46.50;95375.91;5015119;28;20037;-79
2021/12/21 07:49:27;;;;;;;9.25;6.10;;;;;;;3.14;45.85;95366.84;5003222;28;20042;-79
2021/12/21 07:51:56;;;;;;;14.13;8.18;;;;;;;3.12;45.63;95373.94;5013856;28;20504;-78
2021/12/21 07:54:21;;;;;;;19.83;9.35;;;;;;;3.10;45.50;95363.03;5013556;28;20472;-79
2021/12/21 07:59:17;;;;;;;15.27;8.65;;;;;;;3.00;46.39;95368.38;5939636;23;20053;-80
2021/12/21 08:01:43;;;;;;;12.80;7.90;;;;;;;3.11;46.45;95383.41;5043642;28;20083;-81
2021/12/21 08:06:39;;;;;;;16.73;6.80;;;;;;;2.90;46.55;95407.13;5039427;23;20844;-78
2021/12/21 08:09:05;;;;;;;6.72;5.70;;;;;;;2.81;46.29;95407.34;5024229;28;20045;-78
2021/12/21 08:14:06;;;;;;;18.38;9.50;;;;;;;2.83;46.79;95397.72;5022609;28;20036;-81
2021/12/21 08:16:31;;;;;;;11.43;6.80;;;;;;;2.92;46.34;95404.38;5021645;28;20025;-81
2021/12/21 08:18:57;;;;;;;26.13;11.52;;;;;;;3.03;45.93;95401.44;5025848;28;20772;-81
2021/12/21 08:21:30;;;;;;;26.90;12.80;;;;;;;3.16;46.18;95399.09;5023240;28;20038;-80
2021/12/21 08:23:55;;;;;;;18.85;10.35;;;;;;;3.27;45.61;95403.06;5025661;28;20037;-81
2021/12/21 08:26:21;;;;;;;12.32;6.38;;;;;;;3.36;45.07;95412.28;5025023;28;20087;-80
2021/12/21 08:28:46;;;;;;;12.25;9.00;;;;;;;3.29;44.72;95407.06;5025890;28;20045;-79
2021/12/21 08:31:12;;;;;;;18.05;5.85;;;;;;;3.25;43.35;95410.13;5025583;28;20044;-80
2021/12/21 08:33:40;;;;;;;18.00;10.85;;;;;;;3.19;44.20;95410.81;5024720;28;20048;-80
2021/12/21 08:36:06;;;;;;;5.82;4.80;;;;;;;3.15;44.50;95417.25;5025133;28;20101;-80
2021/12/21 08:38:33;;;;;;;10.23;7.25;;;;;;;3.23;44.41;95424.91;5035071;28;20341;-80
2021/12/21 08:40:59;;;;;;;13.80;8.68;;;;;;;3.28;44.27;95433.72;5023977;28;20129;-80
2021/12/21 08:43:27;;;;;;;11.63;5.75;;;;;;;3.34;42.97;95434.81;5011745;28;20068;-79
2021/12/21 08:45:56;;;;;;;16.42;6.50;;;;;;;3.37;42.68;95429.31;5005598;28;20470;-78
2021/12/21 08:48:22;;;;;;;5.13;4.63;;;;;;;3.31;42.41;95430.00;5022575;28;20029;-78
2021/12/21 08:50:48;;;;;;;4.72;3.70;;;;;;;3.26;41.77;95432.31;5035753;28;20029;-79
2021/12/21 08:53:14;;;;;;;12.93;8.15;;;;;;;3.20;42.66;95428.63;5023763;28;20041;-78
2021/12/21 08:55:41;;;;;;;6.65;4.30;;;;;;;3.11;41.87;95434.00;5018853;28;20097;-80
2021/12/21 08:58:06;;;;;;;11.38;3.38;;;;;;;3.01;42.39;95432.44;5034705;28;20101;-80
2021/12/21 09:00:32;;;;;;;6.47;4.50;;;;;;;2.94;42.55;95434.09;5027540;28;20109;-80
2021/12/21 09:02:57;;;;;;;10.10;6.05;;;;;;;2.94;42.77;95439.22;5006406;28;20077;-78
2021/12/21 09:05:26;;;;;;;6.07;5.03;;;;;;;2.93;43.66;95453.06;5029463;28;20513;-79
2021/12/21 09:07:54;;;;;;;8.45;6.60;;;;;;;2.98;43.02;95443.06;5043506;28;20060;-81
2021/12/21 09:10:23;;;;;;;12.32;7.43;;;;;;;3.03;42.24;95427.13;5025255;28;20516;-80
2021/12/21 09:12:49;;;;;;;6.13;2.95;;;;;;;2.97;41.42;95432.97;5030587;28;20034;-82
2021/12/21 09:15:14;;;;;;;7.20;4.20;;;;;;;2.87;42.05;95443.44;5031643;28;20030;-82
2021/12/21 09:17:41;;;;;;;18.33;5.35;;;;;;;2.78;41.66;95425.69;4997903;28;20053;-82
2021/12/21 09:20:07;;;;;;;23.60;7.38;;;;;;;2.70;42.19;95447.03;5030598;28;20088;-82
2021/12/21 09:22:33;;;;;;;11.32;6.50;;;;;;;2.77;42.24;95436.91;5013571;28;20060;-82
2021/12/21 09:24:59;;;;;;;4.57;4.18;;;;;;;2.85;42.25;95436.88;5026623;28;20030;-82
2021/12/21 09:27:28;;;;;;;9.25;6.95;;;;;;;2.99;41.92;95436.16;5028868;28;20034;-80
2021/12/21 09:29:53;;;;;;;6.43;4.20;;;;;;;3.06;41.72;95447.34;5028508;28;20038;-82
2021/12/21 09:32:19;;;;;;;4.35;3.30;;;;;;;3.06;42.29;95436.25;5025856;28;20057;-81
2021/12/21 09:34:45;;;;;;;9.63;3.17;;;;;;;2.98;42.88;95439.69;5011816;28;20180;-81
2021/12/21 09:37:15;;;;;;;3.00;2.80;;;;;;;2.88;42.99;95442.47;5028386;28;20160;-82
2021/12/21 09:39:45;;;;;;;3.13;2.83;;;;;;;2.79;43.24;95456.31;5012994;28;20610;-82
2021/12/21 09:42:16;;;;;;;4.28;3.75;;;;;;;2.62;44.07;95457.38;5024891;28;20670;-81
2021/12/21 09:44:41;;;;;;;6.50;3.97;;;;;;;2.44;44.87;95451.63;5028476;28;20041;-82
2021/12/21 09:47:09;;;;;;;5.68;4.40;;;;;;;2.30;45.98;95456.50;5046621;28;20025;-82
2021/12/21 09:49:35;;;;;;;5.10;4.60;;;;;;;2.25;46.11;95443.34;5032597;28;20092;-82
2021/12/21 09:52:01;;;;;;;8.07;6.10;;;;;;;2.29;44.71;95444.63;5032870;28;20040;-80
2021/12/21 09:54:26;;;;;;;10.30;6.35;;;;;;;2.21;45.24;95447.22;5001883;28;20096;-81
2021/12/21 09:56:52;;;;;;;16.48;9.43;;;;;;;2.21;45.42;95442.09;5013049;28;20048;-81
2021/12/21 09:59:17;;;;;;;21.17;9.10;;;;;;;2.22;44.59;95443.69;5026931;28;20033;-80
2021/12/21 10:01:43;;;;;;;16.08;7.22;;;;;;;2.29;44.99;95448.97;5033228;28;20052;-81
2021/12/21 10:04:08;;;;;;;13.75;6.25;;;;;;;2.35;45.01;95456.81;4999071;28;20037;-82
2021/12/21 10:06:54;;;;;;;10.82;6.22;;;;;;;2.50;43.53;95440.72;5047028;28;20044;-81
2021/12/21 10:09:20;;;;;;;2.80;2.70;;;;;;;2.43;43.53;95432.88;5013323;28;20041;-82
2021/12/21 10:11:48;;;;;;;12.85;3.10;;;;;;;2.35;44.17;95425.22;5028047;28;20030;-82
2021/12/21 10:14:20;;;;;;;2.92;2.72;;;;;;;2.34;44.59;95416.72;5013787;28;20046;-82
2021/12/21 10:16:45;;;;;;;3.60;2.88;;;;;;;2.20;43.98;95429.41;5014650;28;20042;-81
2021/12/21 10:19:23;;;;;;;6.22;3.50;;;;;;;1.86;45.24;95432.22;5028510;28;20496;-82
2021/12/21 10:21:49;;;;;;;11.63;6.85;;;;;;;1.77;45.61;95437.34;5028702;28;20041;-81
2021/12/21 10:24:24;;;;;;;5.05;4.30;;;;;;;1.64;46.40;95439.63;5027861;28;20052;-81
2021/12/21 10:27:05;;;;;;;15.00;7.47;;;;;;;1.65;47.52;95430.97;5010567;28;20056;-82
2021/12/21 10:29:42;;;;;;;13.85;6.38;;;;;;;1.77;47.92;95432.22;4997831;28;20046;-84
2021/12/21 10:32:16;;;;;;;26.13;11.30;;;;;;;1.83;47.71;95433.34;5035666;28;20049;-82
2021/12/21 10:34:52;;;;;;;8.70;5.57;;;;;;;1.79;47.61;95437.22;5027958;28;20116;-81
2021/12/21 10:37:27;;;;;;;27.85;11.13;;;;;;;1.76;47.13;95440.88;5029579;28;20126;-81
2021/12/21 10:40:11;;;;;;;14.73;8.48;;;;;;;1.79;46.94;95432.88;5028513;28;20140;-81
2021/12/21 10:45:29;;;;;;;4.45;4.03;;;;;;;1.82;46.65;95441.22;5120427;23;20083;-81
2021/12/21 10:47:55;;;;;;;26.00;8.40;;;;;;;2.00;45.53;95434.94;5047639;28;20120;-81
2021/12/21 10:50:20;;;;;;;5.00;4.07;;;;;;;2.02;45.23;95435.56;5033730;28;20044;-80
2021/12/21 10:52:51;;;;;;;12.25;6.07;;;;;;;2.07;45.20;95437.63;5049016;28;20067;-80
2021/12/21 10:55:23;;;;;;;26.90;12.40;;;;;;;2.11;45.20;95444.03;5050410;28;20040;-80
2021/12/21 10:57:49;;;;;;;10.00;6.65;;;;;;;2.08;44.36;95439.22;5034570;28;20087;-80
2021/12/21 11:00:16;;;;;;;13.63;7.15;;;;;;;2.11;44.30;95454.28;5101344;23;20038;-80
2021/12/21 11:02:49;;;;;;;8.93;3.97;;;;;;;2.00;44.21;95454.66;5506436;23;20109;-80
2021/12/21 11:05:16;;;;;;;14.98;8.27;;;;;;;1.99;44.81;95453.03;5023551;28;20049;-78
2021/12/21 11:07:54;;;;;;;15.13;9.48;;;;;;;2.02;45.47;95447.59;5019952;28;20049;-83
2021/12/21 11:10:26;;;;;;;14.82;7.25;;;;;;;2.04;44.88;95446.44;5009190;28;20061;-80
2021/12/21 11:15:57;;;;;;;4.65;3.65;;;;;;;2.18;44.17;95446.75;5181181;23;20981;-79
2021/12/21 11:18:24;;;;;;;3.75;2.67;;;;;;;2.24;43.20;95436.63;5011278;28;20073;-82
2021/12/21 11:20:54;;;;;;;6.97;5.43;;;;;;;2.26;43.15;95444.16;5415023;22;20266;-80
2021/12/21 11:23:20;;;;;;;4.55;4.22;;;;;;;2.11;43.11;95441.47;5028020;28;20058;-80
2021/12/21 11:25:48;;;;;;;4.60;4.20;;;;;;;1.96;43.04;95445.69;5017081;28;20044;-81
2021/12/21 11:28:15;;;;;;;7.88;5.30;;;;;;;1.84;42.98;95446.97;5009144;28;20034;-81
2021/12/21 11:30:41;;;;;;;6.32;4.47;;;;;;;1.89;41.18;95439.59;5015787;28;20037;-81
2021/12/21 11:33:07;;;;;;;7.07;4.03;;;;;;;1.89;40.64;95431.88;5001996;28;20042;-81
2021/12/21 11:38:45;;;;;;;15.20;6.25;;;;;;;1.87;39.63;95395.34;5015364;28;20076;-81
2021/12/21 11:41:10;;;;;;;5.68;4.68;;;;;;;1.77;39.29;95416.84;5000504;28;20494;-81
2021/12/21 11:44:03;;;;;;;58.13;18.52;;;;;;;1.83;39.86;95417.16;5013756;28;20048;-81
2021/12/21 11:46:33;;;;;;;32.35;13.60;;;;;;;1.81;40.17;95425.03;5017455;28;20038;-80
2021/12/21 11:49:06;;;;;;;13.05;3.97;;;;;;;1.72;40.98;95421.66;5013201;28;20061;-81
2021/12/21 11:51:32;;;;;;;4.60;3.28;;;;;;;1.62;40.98;95415.88;5010415;28;20112;-79
2021/12/21 11:53:57;;;;;;;3.28;2.95;;;;;;;1.53;41.58;95414.31;5006282;28;20497;-81
2021/12/21 11:56:25;;;;;;;6.28;3.05;;;;;;;1.49;42.01;95407.91;5009729;28;20080;-80
2021/12/21 11:58:51;;;;;;;8.45;3.60;;;;;;;1.40;42.49;95424.22;5011872;28;20057;-82
2021/12/21 12:01:27;;;;;;;3.97;3.35;;;;;;;1.40;42.95;95412.22;5006534;28;20489;-81
2021/12/21 12:04:08;;;;;;;5.57;3.67;;;;;;;1.35;43.66;95418.78;5013488;28;20038;-80
2021/12/21 12:06:46;;;;;;;6.97;3.78;;;;;;;1.29;44.14;95406.59;5116307;23;20017;-80
2021/12/21 12:09:29;;;;;;;3.22;3.03;;;;;;;1.26;43.96;95412.06;5305775;23;20034;-80
2021/12/21 12:12:07;;;;;;;;;;;;;;;1.13;43.66;95427.88;5026850;28;20419;-80
2021/12/21 12:14:37;;;;;;;3.17;2.97;;;;;;;1.03;42.98;95430.59;5031619;28;19936;-81
2021/12/21 12:17:05;;;;;;;3.88;3.58;;;;;;;0.99;42.70;95413.97;4984057;28;20022;-80
2021/12/21 12:19:35;;;;;;;4.00;3.28;;;;;;;0.92;43.16;95427.53;5030288;28;20030;-79
2021/12/21 12:22:03;;;;;;;7.28;4.05;;;;;;;0.94;42.11;95439.22;5015125;28;20045;-80
2021/12/21 12:24:34;;;;;;;8.07;4.93;;;;;;;1.00;42.49;95446.28;5013536;28;20033;-79
2021/12/21 12:27:02;;;;;;;5.32;4.10;;;;;;;1.17;42.46;95447.13;5013086;28;20414;-80
2021/12/21 12:29:27;;;;;;;13.32;6.47;;;;;;;1.42;42.22;95445.38;5014115;28;20054;-80
2021/12/21 12:32:05;;;;;;;4.28;3.97;;;;;;;1.65;41.11;95453.25;5015468;28;20040;-80
2021/12/21 12:34:32;;;;;;;6.35;4.75;;;;;;;1.78;41.31;95449.19;5014977;28;20501;-80
2021/12/21 12:36:58;;;;;;;23.48;9.70;;;;;;;2.04;41.87;95463.59;5018380;28;20065;-80
2021/12/21 12:39:29;;;;;;;32.70;12.80;;;;;;;2.26;41.55;95465.47;5074848;23;20034;-81
2021/12/21 12:42:06;;;;;;;22.63;10.13;;;;;;;2.42;40.91;95460.28;5026237;28;20030;-79
2021/12/21 12:44:32;;;;;;;17.27;7.30;;;;;;;2.52;40.36;95454.19;5085894;23;20066;-81
2021/12/21 12:49:52;;;;;;;13.75;5.80;;;;;;;2.55;40.43;95464.13;4987291;28;20081;-81
2021/12/21 12:52:28;;;;;;;3.75;3.00;;;;;;;2.38;41.13;95469.31;5001137;28;20049;-82
2021/12/21 12:54:54;;;;;;;8.32;2.97;;;;;;;2.25;41.09;95475.91;4983393;28;20413;-80
2021/12/21 12:57:27;;;;;;;4.72;3.30;;;;;;;2.05;41.32;95465.22;4994601;28;20079;-81
2021/12/21 12:59:57;;;;;;;5.00;3.42;;;;;;;1.82;40.50;95466.84;4967192;28;20469;-81